sensor_id;sensor_type;location;lat;lon;timestamp;P1;durP1;ratioP1;P2;durP2;ratioP2
72379;SDS011;60354;47.798;12.472;2023-03-25T00:00:07;0.85;;;0.47;;
72379;SDS011;60354;47.798;12.472;2023-03-25T00:02:41;1.65;;;0.60;;
72379;SDS011;60354;47.798;12.472;2023-03-25T00:05:09;2.72;;;1.00;;
72379;SDS011;60354;47.798;12.472;2023-03-25T00:07:35;1.55;;;0.57;;
72379;SDS011;60354;47.798;12.472;2023-03-25T00:10:01;0.80;;;0.60;;
72379;SDS011;60354;47.798;12.472;2023-03-25T00:12:27;1.55;;;0.60;;
72379;SDS011;60354;47.798;12.472;2023-03-25T00:14:52;2.10;;;0.63;;
72379;SDS011;60354;47.798;12.472;2023-03-25T00:17:22;0.80;;;0.55;;
72379;SDS011;60354;47.798;12.472;2023-03-25T00:19:56;2.30;;;0.70;;
72379;SDS011;60354;47.798;12.472;2023-03-25T00:22:24;1.40;;;0.73;;
72379;SDS011;60354;47.798;12.472;2023-03-25T00:24:50;2.17;;;0.63;;
72379;SDS011;60354;47.798;12.472;2023-03-25T00:27:16;0.50;;;0.40;;
72379;SDS011;60354;47.798;12.472;2023-03-25T00:29:42;2.03;;;0.80;;
72379;SDS011;60354;47.798;12.472;2023-03-25T00:32:09;1.88;;;0.60;;
72379;SDS011;60354;47.798;12.472;2023-03-25T00:34:36;1.90;;;0.60;;
72379;SDS011;60354;47.798;12.472;2023-03-25T00:37:09;1.73;;;0.80;;
72379;SDS011;60354;47.798;12.472;2023-03-25T00:39:35;1.05;;;0.70;;
72379;SDS011;60354;47.798;12.472;2023-03-25T00:42:01;2.47;;;1.05;;
72379;SDS011;60354;47.798;12.472;2023-03-25T00:44:27;2.15;;;0.75;;
72379;SDS011;60354;47.798;12.472;2023-03-25T00:46:53;1.80;;;0.57;;
72379;SDS011;60354;47.798;12.472;2023-03-25T00:49:19;1.60;;;0.70;;
72379;SDS011;60354;47.798;12.472;2023-03-25T00:51:49;1.30;;;0.60;;
72379;SDS011;60354;47.798;12.472;2023-03-25T00:54:16;2.88;;;0.93;;
72379;SDS011;60354;47.798;12.472;2023-03-25T00:56:42;3.97;;;0.80;;
72379;SDS011;60354;47.798;12.472;2023-03-25T00:59:09;2.33;;;0.80;;
72379;SDS011;60354;47.798;12.472;2023-03-25T01:01:34;2.13;;;0.80;;
72379;SDS011;60354;47.798;12.472;2023-03-25T01:04:04;1.30;;;0.60;;
72379;SDS011;60354;47.798;12.472;2023-03-25T01:06:37;3.60;;;0.70;;
72379;SDS011;60354;47.798;12.472;2023-03-25T01:09:09;4.85;;;0.70;;
72379;SDS011;60354;47.798;12.472;2023-03-25T01:11:38;3.08;;;0.65;;
72379;SDS011;60354;47.798;12.472;2023-03-25T01:14:05;3.53;;;0.80;;
72379;SDS011;60354;47.798;12.472;2023-03-25T01:16:35;1.15;;;0.63;;
72379;SDS011;60354;47.798;12.472;2023-03-25T01:19:01;2.15;;;0.70;;
72379;SDS011;60354;47.798;12.472;2023-03-25T01:21:27;3.60;;;0.80;;
72379;SDS011;60354;47.798;12.472;2023-03-25T01:23:52;2.65;;;0.70;;
72379;SDS011;60354;47.798;12.472;2023-03-25T01:26:18;2.28;;;0.68;;
72379;SDS011;60354;47.798;12.472;2023-03-25T01:28:43;2.53;;;0.80;;
72379;SDS011;60354;47.798;12.472;2023-03-25T01:31:10;3.10;;;0.90;;
72379;SDS011;60354;47.798;12.472;2023-03-25T01:33:37;1.98;;;0.70;;
72379;SDS011;60354;47.798;12.472;2023-03-25T01:36:03;4.65;;;0.98;;
72379;SDS011;60354;47.798;12.472;2023-03-25T01:38:34;2.60;;;0.70;;
72379;SDS011;60354;47.798;12.472;2023-03-25T01:41:00;2.83;;;0.90;;
72379;SDS011;60354;47.798;12.472;2023-03-25T01:43:28;2.28;;;0.70;;
72379;SDS011;60354;47.798;12.472;2023-03-25T01:45:53;3.92;;;0.85;;
72379;SDS011;60354;47.798;12.472;2023-03-25T01:48:31;4.30;;;0.90;;
72379;SDS011;60354;47.798;12.472;2023-03-25T01:51:04;2.42;;;0.70;;
72379;SDS011;60354;47.798;12.472;2023-03-25T01:53:32;1.23;;;0.52;;
72379;SDS011;60354;47.798;12.472;2023-03-25T01:55:59;3.85;;;0.88;;
72379;SDS011;60354;47.798;12.472;2023-03-25T01:58:27;2.30;;;0.95;;
72379;SDS011;60354;47.798;12.472;2023-03-25T02:00:54;3.15;;;0.80;;
72379;SDS011;60354;47.798;12.472;2023-03-25T02:03:22;0.85;;;0.60;;
72379;SDS011;60354;47.798;12.472;2023-03-25T02:08:31;2.88;;;0.80;;
72379;SDS011;60354;47.798;12.472;2023-03-25T02:11:02;4.03;;;0.80;;
72379;SDS011;60354;47.798;12.472;2023-03-25T02:13:29;1.63;;;0.70;;
72379;SDS011;60354;47.798;12.472;2023-03-25T02:35:38;2.92;;;0.90;;
72379;SDS011;60354;47.798;12.472;2023-03-25T02:38:38;3.88;;;0.95;;
72379;SDS011;60354;47.798;12.472;2023-03-25T02:41:12;3.55;;;0.80;;
72379;SDS011;60354;47.798;12.472;2023-03-25T02:43:43;2.33;;;0.90;;
72379;SDS011;60354;47.798;12.472;2023-03-25T02:46:16;3.60;;;1.08;;
72379;SDS011;60354;47.798;12.472;2023-03-25T02:48:55;1.55;;;0.63;;
72379;SDS011;60354;47.798;12.472;2023-03-25T02:51:27;2.13;;;0.82;;
72379;SDS011;60354;47.798;12.472;2023-03-25T02:53:58;7.53;;;0.90;;
72379;SDS011;60354;47.798;12.472;2023-03-25T02:56:27;4.47;;;0.77;;
72379;SDS011;60354;47.798;12.472;2023-03-25T02:58:57;0.93;;;0.60;;
72379;SDS011;60354;47.798;12.472;2023-03-25T03:01:24;3.80;;;1.10;;
72379;SDS011;60354;47.798;12.472;2023-03-25T03:03:52;3.03;;;0.80;;
72379;SDS011;60354;47.798;12.472;2023-03-25T03:06:18;3.78;;;0.95;;
72379;SDS011;60354;47.798;12.472;2023-03-25T03:14:29;1.95;;;0.68;;
72379;SDS011;60354;47.798;12.472;2023-03-25T03:20:00;4.75;;;1.00;;
72379;SDS011;60354;47.798;12.472;2023-03-25T03:22:52;3.35;;;1.05;;
72379;SDS011;60354;47.798;12.472;2023-03-25T03:25:33;4.55;;;0.90;;
72379;SDS011;60354;47.798;12.472;2023-03-25T03:28:10;2.40;;;0.85;;
72379;SDS011;60354;47.798;12.472;2023-03-25T03:35:56;2.17;;;1.00;;
72379;SDS011;60354;47.798;12.472;2023-03-25T03:38:27;1.58;;;0.52;;
72379;SDS011;60354;47.798;12.472;2023-03-25T03:41:00;1.85;;;0.75;;
72379;SDS011;60354;47.798;12.472;2023-03-25T03:43:41;2.22;;;0.80;;
72379;SDS011;60354;47.798;12.472;2023-03-25T03:46:15;6.18;;;0.95;;
72379;SDS011;60354;47.798;12.472;2023-03-25T03:48:48;1.67;;;0.63;;
72379;SDS011;60354;47.798;12.472;2023-03-25T03:51:21;1.48;;;0.60;;
72379;SDS011;60354;47.798;12.472;2023-03-25T03:56:43;2.25;;;0.57;;
72379;SDS011;60354;47.798;12.472;2023-03-25T04:02:00;1.63;;;0.60;;
72379;SDS011;60354;47.798;12.472;2023-03-25T04:04:30;3.90;;;0.60;;
72379;SDS011;60354;47.798;12.472;2023-03-25T04:07:03;2.00;;;0.60;;
72379;SDS011;60354;47.798;12.472;2023-03-25T04:12:21;2.22;;;0.70;;
72379;SDS011;60354;47.798;12.472;2023-03-25T04:14:50;3.15;;;0.70;;
72379;SDS011;60354;47.798;12.472;2023-03-25T04:17:16;2.95;;;0.50;;
72379;SDS011;60354;47.798;12.472;2023-03-25T04:19:42;3.28;;;0.60;;
72379;SDS011;60354;47.798;12.472;2023-03-25T04:22:13;0.43;;;0.40;;
72379;SDS011;60354;47.798;12.472;2023-03-25T04:24:41;2.30;;;0.70;;
72379;SDS011;60354;47.798;12.472;2023-03-25T04:27:08;3.33;;;0.50;;
72379;SDS011;60354;47.798;12.472;2023-03-25T04:29:38;1.63;;;0.50;;
72379;SDS011;60354;47.798;12.472;2023-03-25T04:32:04;1.27;;;0.52;;
72379;SDS011;60354;47.798;12.472;2023-03-25T04:34:30;2.30;;;0.80;;
72379;SDS011;60354;47.798;12.472;2023-03-25T04:36:56;1.95;;;0.40;;
72379;SDS011;60354;47.798;12.472;2023-03-25T04:39:21;1.55;;;0.57;;
72379;SDS011;60354;47.798;12.472;2023-03-25T04:41:50;3.30;;;0.47;;
72379;SDS011;60354;47.798;12.472;2023-03-25T04:44:20;2.78;;;0.90;;
72379;SDS011;60354;47.798;12.472;2023-03-25T04:46:47;1.40;;;0.40;;
72379;SDS011;60354;47.798;12.472;2023-03-25T04:49:17;2.58;;;0.60;;
72379;SDS011;60354;47.798;12.472;2023-03-25T04:51:45;2.75;;;0.60;;
72379;SDS011;60354;47.798;12.472;2023-03-25T04:54:14;2.28;;;0.60;;
72379;SDS011;60354;47.798;12.472;2023-03-25T04:56:39;3.70;;;0.60;;
72379;SDS011;60354;47.798;12.472;2023-03-25T04:59:05;3.97;;;0.80;;
72379;SDS011;60354;47.798;12.472;2023-03-25T05:01:30;3.72;;;0.60;;
72379;SDS011;60354;47.798;12.472;2023-03-25T05:04:00;7.47;;;1.73;;
72379;SDS011;60354;47.798;12.472;2023-03-25T05:06:34;1.77;;;0.50;;
72379;SDS011;60354;47.798;12.472;2023-03-25T05:09:03;1.75;;;1.10;;
72379;SDS011;60354;47.798;12.472;2023-03-25T05:14:16;4.50;;;2.10;;
72379;SDS011;60354;47.798;12.472;2023-03-25T05:16:43;1.75;;;0.80;;
72379;SDS011;60354;47.798;12.472;2023-03-25T05:19:09;2.58;;;1.23;;
72379;SDS011;60354;47.798;12.472;2023-03-25T05:21:36;2.05;;;1.30;;
72379;SDS011;60354;47.798;12.472;2023-03-25T05:24:03;4.43;;;2.58;;
72379;SDS011;60354;47.798;12.472;2023-03-25T05:26:32;2.40;;;1.52;;
72379;SDS011;60354;47.798;12.472;2023-03-25T05:28:59;5.65;;;1.25;;
72379;SDS011;60354;47.798;12.472;2023-03-25T05:31:28;3.78;;;0.85;;
72379;SDS011;60354;47.798;12.472;2023-03-25T05:33:54;3.42;;;1.20;;
72379;SDS011;60354;47.798;12.472;2023-03-25T05:36:20;2.13;;;0.90;;
72379;SDS011;60354;47.798;12.472;2023-03-25T05:38:45;2.28;;;1.42;;
72379;SDS011;60354;47.798;12.472;2023-03-25T05:41:12;1.73;;;1.20;;
72379;SDS011;60354;47.798;12.472;2023-03-25T05:43:41;2.35;;;1.00;;
72379;SDS011;60354;47.798;12.472;2023-03-25T05:46:10;1.75;;;0.90;;
72379;SDS011;60354;47.798;12.472;2023-03-25T05:48:36;5.03;;;1.55;;
72379;SDS011;60354;47.798;12.472;2023-03-25T05:51:02;3.92;;;2.05;;
72379;SDS011;60354;47.798;12.472;2023-03-25T05:53:30;2.90;;;1.40;;
72379;SDS011;60354;47.798;12.472;2023-03-25T05:55:57;1.55;;;0.40;;
72379;SDS011;60354;47.798;12.472;2023-03-25T05:58:27;3.25;;;0.88;;
72379;SDS011;60354;47.798;12.472;2023-03-25T06:00:53;0.93;;;0.40;;
72379;SDS011;60354;47.798;12.472;2023-03-25T06:03:19;1.92;;;0.52;;
72379;SDS011;60354;47.798;12.472;2023-03-25T06:05:45;1.55;;;0.40;;
72379;SDS011;60354;47.798;12.472;2023-03-25T06:08:12;1.90;;;1.05;;
72379;SDS011;60354;47.798;12.472;2023-03-25T06:10:38;3.38;;;1.08;;
72379;SDS011;60354;47.798;12.472;2023-03-25T06:13:03;1.80;;;0.52;;
72379;SDS011;60354;47.798;12.472;2023-03-25T06:15:29;1.38;;;0.40;;
72379;SDS011;60354;47.798;12.472;2023-03-25T06:17:57;2.80;;;0.55;;
72379;SDS011;60354;47.798;12.472;2023-03-25T06:20:24;1.20;;;0.50;;
72379;SDS011;60354;47.798;12.472;2023-03-25T06:22:50;1.55;;;0.40;;
72379;SDS011;60354;47.798;12.472;2023-03-25T06:25:17;1.27;;;0.40;;
72379;SDS011;60354;47.798;12.472;2023-03-25T06:27:45;2.40;;;0.75;;
72379;SDS011;60354;47.798;12.472;2023-03-25T06:30:14;2.95;;;0.70;;
72379;SDS011;60354;47.798;12.472;2023-03-25T06:32:42;1.45;;;0.30;;
72379;SDS011;60354;47.798;12.472;2023-03-25T06:35:09;1.23;;;0.40;;
72379;SDS011;60354;47.798;12.472;2023-03-25T06:37:36;1.77;;;0.50;;
72379;SDS011;60354;47.798;12.472;2023-03-25T06:40:07;2.10;;;0.50;;
72379;SDS011;60354;47.798;12.472;2023-03-25T06:42:34;2.13;;;0.47;;
72379;SDS011;60354;47.798;12.472;2023-03-25T06:45:35;0.90;;;0.30;;
72379;SDS011;60354;47.798;12.472;2023-03-25T06:48:32;0.95;;;0.30;;
72379;SDS011;60354;47.798;12.472;2023-03-25T06:51:01;1.00;;;0.40;;
72379;SDS011;60354;47.798;12.472;2023-03-25T06:53:26;3.92;;;0.30;;
72379;SDS011;60354;47.798;12.472;2023-03-25T06:55:52;0.65;;;0.20;;
72379;SDS011;60354;47.798;12.472;2023-03-25T06:58:17;1.00;;;0.43;;
72379;SDS011;60354;47.798;12.472;2023-03-25T07:00:42;0.30;;;0.15;;
72379;SDS011;60354;47.798;12.472;2023-03-25T07:03:09;1.00;;;0.30;;
72379;SDS011;60354;47.798;12.472;2023-03-25T07:05:35;0.52;;;0.17;;
72379;SDS011;60354;47.798;12.472;2023-03-25T07:08:00;0.20;;;0.20;;
72379;SDS011;60354;47.798;12.472;2023-03-25T07:10:26;1.52;;;0.47;;
72379;SDS011;60354;47.798;12.472;2023-03-25T07:12:51;0.30;;;0.20;;
72379;SDS011;60354;47.798;12.472;2023-03-25T07:15:17;0.65;;;0.40;;
72379;SDS011;60354;47.798;12.472;2023-03-25T07:17:44;0.50;;;0.30;;
72379;SDS011;60354;47.798;12.472;2023-03-25T07:20:13;0.43;;;0.30;;
72379;SDS011;60354;47.798;12.472;2023-03-25T07:22:38;3.30;;;0.40;;
72379;SDS011;60354;47.798;12.472;2023-03-25T07:25:04;1.08;;;0.20;;
72379;SDS011;60354;47.798;12.472;2023-03-25T07:27:30;0.57;;;0.20;;
72379;SDS011;60354;47.798;12.472;2023-03-25T07:30:04;0.22;;;0.20;;
72379;SDS011;60354;47.798;12.472;2023-03-25T07:32:30;0.60;;;0.17;;
72379;SDS011;60354;47.798;12.472;2023-03-25T07:34:56;0.30;;;0.20;;
72379;SDS011;60354;47.798;12.472;2023-03-25T07:37:21;1.35;;;0.22;;
72379;SDS011;60354;47.798;12.472;2023-03-25T07:39:47;0.57;;;0.40;;
72379;SDS011;60354;47.798;12.472;2023-03-25T07:42:12;0.30;;;0.28;;
72379;SDS011;60354;47.798;12.472;2023-03-25T07:45:01;0.80;;;0.60;;
72379;SDS011;60354;47.798;12.472;2023-03-25T07:47:28;1.02;;;0.32;;
72379;SDS011;60354;47.798;12.472;2023-03-25T07:49:53;0.20;;;0.20;;
72379;SDS011;60354;47.798;12.472;2023-03-25T07:52:19;0.50;;;0.30;;
72379;SDS011;60354;47.798;12.472;2023-03-25T07:54:44;0.95;;;0.30;;
72379;SDS011;60354;47.798;12.472;2023-03-25T07:57:10;0.50;;;0.30;;
72379;SDS011;60354;47.798;12.472;2023-03-25T07:59:35;0.57;;;0.25;;
72379;SDS011;60354;47.798;12.472;2023-03-25T08:02:01;2.47;;;0.20;;
72379;SDS011;60354;47.798;12.472;2023-03-25T08:04:26;0.63;;;0.30;;
72379;SDS011;60354;47.798;12.472;2023-03-25T08:06:52;0.35;;;0.13;;
72379;SDS011;60354;47.798;12.472;2023-03-25T08:09:17;1.50;;;0.28;;
72379;SDS011;60354;47.798;12.472;2023-03-25T08:11:43;0.30;;;0.17;;
72379;SDS011;60354;47.798;12.472;2023-03-25T08:14:08;0.20;;;0.20;;
72379;SDS011;60354;47.798;12.472;2023-03-25T08:16:34;0.20;;;0.20;;
72379;SDS011;60354;47.798;12.472;2023-03-25T08:18:59;0.10;;;0.10;;
72379;SDS011;60354;47.798;12.472;2023-03-25T08:21:24;0.50;;;0.38;;
72379;SDS011;60354;47.798;12.472;2023-03-25T08:23:51;0.93;;;0.30;;
72379;SDS011;60354;47.798;12.472;2023-03-25T08:26:23;0.50;;;0.20;;
72379;SDS011;60354;47.798;12.472;2023-03-25T08:28:53;1.95;;;0.68;;
72379;SDS011;60354;47.798;12.472;2023-03-25T08:31:25;0.30;;;0.20;;
72379;SDS011;60354;47.798;12.472;2023-03-25T08:33:58;2.13;;;0.60;;
72379;SDS011;60354;47.798;12.472;2023-03-25T08:36:24;1.92;;;0.60;;
72379;SDS011;60354;47.798;12.472;2023-03-25T08:38:50;1.35;;;0.40;;
72379;SDS011;60354;47.798;12.472;2023-03-25T08:41:16;0.73;;;0.30;;
72379;SDS011;60354;47.798;12.472;2023-03-25T08:43:42;1.35;;;0.57;;
72379;SDS011;60354;47.798;12.472;2023-03-25T08:46:07;1.60;;;0.40;;
72379;SDS011;60354;47.798;12.472;2023-03-25T08:48:33;2.20;;;0.57;;
72379;SDS011;60354;47.798;12.472;2023-03-25T08:50:58;2.10;;;0.40;;
72379;SDS011;60354;47.798;12.472;2023-03-25T08:53:24;0.85;;;0.30;;
72379;SDS011;60354;47.798;12.472;2023-03-25T08:55:54;2.30;;;0.45;;
72379;SDS011;60354;47.798;12.472;2023-03-25T09:00:50;1.02;;;0.40;;
72379;SDS011;60354;47.798;12.472;2023-03-25T09:03:22;0.45;;;0.20;;
72379;SDS011;60354;47.798;12.472;2023-03-25T09:05:48;1.92;;;0.50;;
72379;SDS011;60354;47.798;12.472;2023-03-25T09:08:14;2.08;;;0.40;;
72379;SDS011;60354;47.798;12.472;2023-03-25T09:10:39;1.92;;;0.38;;
72379;SDS011;60354;47.798;12.472;2023-03-25T09:13:05;1.25;;;0.20;;
72379;SDS011;60354;47.798;12.472;2023-03-25T09:15:31;2.25;;;0.60;;
72379;SDS011;60354;47.798;12.472;2023-03-25T09:17:56;1.73;;;0.40;;
72379;SDS011;60354;47.798;12.472;2023-03-25T09:20:22;2.42;;;0.40;;
72379;SDS011;60354;47.798;12.472;2023-03-25T09:22:48;0.95;;;0.30;;
72379;SDS011;60354;47.798;12.472;2023-03-25T09:25:13;1.17;;;0.30;;
72379;SDS011;60354;47.798;12.472;2023-03-25T09:27:39;0.98;;;0.20;;
72379;SDS011;60354;47.798;12.472;2023-03-25T09:30:05;0.35;;;0.20;;
72379;SDS011;60354;47.798;12.472;2023-03-25T09:32:31;0.20;;;0.10;;
72379;SDS011;60354;47.798;12.472;2023-03-25T09:34:57;0.85;;;0.20;;
72379;SDS011;60354;47.798;12.472;2023-03-25T09:37:22;0.63;;;0.20;;
72379;SDS011;60354;47.798;12.472;2023-03-25T09:39:48;0.20;;;0.20;;
72379;SDS011;60354;47.798;12.472;2023-03-25T09:42:25;0.25;;;0.13;;
72379;SDS011;60354;47.798;12.472;2023-03-25T09:47:23;0.20;;;0.20;;
72379;SDS011;60354;47.798;12.472;2023-03-25T09:49:53;1.65;;;0.17;;
72379;SDS011;60354;47.798;12.472;2023-03-25T09:52:35;0.75;;;0.50;;
72379;SDS011;60354;47.798;12.472;2023-03-25T09:55:13;0.68;;;0.40;;
72379;SDS011;60354;47.798;12.472;2023-03-25T09:57:46;1.10;;;0.30;;
72379;SDS011;60354;47.798;12.472;2023-03-25T10:00:16;0.77;;;0.32;;
72379;SDS011;60354;47.798;12.472;2023-03-25T10:21:18;0.75;;;0.20;;
72379;SDS011;60354;47.798;12.472;2023-03-25T10:28:53;1.45;;;0.40;;
72379;SDS011;60354;47.798;12.472;2023-03-25T10:31:25;2.80;;;0.50;;
72379;SDS011;60354;47.798;12.472;2023-03-25T10:33:55;1.88;;;0.52;;
72379;SDS011;60354;47.798;12.472;2023-03-25T10:36:31;2.33;;;0.43;;
72379;SDS011;60354;47.798;12.472;2023-03-25T10:39:00;1.38;;;0.40;;
72379;SDS011;60354;47.798;12.472;2023-03-25T10:41:30;2.80;;;0.47;;
72379;SDS011;60354;47.798;12.472;2023-03-25T10:44:01;1.48;;;0.73;;
72379;SDS011;60354;47.798;12.472;2023-03-25T10:46:37;1.35;;;0.50;;
72379;SDS011;60354;47.798;12.472;2023-03-25T10:49:14;1.38;;;0.43;;
72379;SDS011;60354;47.798;12.472;2023-03-25T10:51:46;0.68;;;0.40;;
72379;SDS011;60354;47.798;12.472;2023-03-25T10:54:14;1.05;;;0.50;;
72379;SDS011;60354;47.798;12.472;2023-03-25T10:56:51;1.42;;;0.30;;
72379;SDS011;60354;47.798;12.472;2023-03-25T11:01:48;3.00;;;0.30;;
72379;SDS011;60354;47.798;12.472;2023-03-25T11:04:16;1.38;;;0.30;;
72379;SDS011;60354;47.798;12.472;2023-03-25T11:06:44;1.77;;;0.50;;
72379;SDS011;60354;47.798;12.472;2023-03-25T11:09:16;1.02;;;0.50;;
72379;SDS011;60354;47.798;12.472;2023-03-25T11:11:47;0.85;;;0.30;;
72379;SDS011;60354;47.798;12.472;2023-03-25T11:14:23;1.38;;;0.40;;
72379;SDS011;60354;47.798;12.472;2023-03-25T11:17:04;1.40;;;0.40;;
72379;SDS011;60354;47.798;12.472;2023-03-25T11:19:57;0.28;;;0.28;;
72379;SDS011;60354;47.798;12.472;2023-03-25T11:22:49;1.55;;;0.38;;
72379;SDS011;60354;47.798;12.472;2023-03-25T11:25:37;0.60;;;0.40;;
72379;SDS011;60354;47.798;12.472;2023-03-25T11:28:09;0.52;;;0.28;;
72379;SDS011;60354;47.798;12.472;2023-03-25T11:31:09;1.42;;;0.40;;
72379;SDS011;60354;47.798;12.472;2023-03-25T11:36:38;1.17;;;0.20;;
72379;SDS011;60354;47.798;12.472;2023-03-25T11:41:57;1.15;;;0.40;;
72379;SDS011;60354;47.798;12.472;2023-03-25T11:44:30;0.40;;;0.20;;
72379;SDS011;60354;47.798;12.472;2023-03-25T11:47:01;1.88;;;0.20;;
72379;SDS011;60354;47.798;12.472;2023-03-25T11:49:29;0.40;;;0.20;;
72379;SDS011;60354;47.798;12.472;2023-03-25T11:52:23;1.02;;;0.20;;
72379;SDS011;60354;47.798;12.472;2023-03-25T11:54:54;0.10;;;0.10;;
72379;SDS011;60354;47.798;12.472;2023-03-25T11:57:27;0.30;;;0.20;;
72379;SDS011;60354;47.798;12.472;2023-03-25T12:00:03;0.20;;;0.20;;
72379;SDS011;60354;47.798;12.472;2023-03-25T12:02:42;0.10;;;0.10;;
72379;SDS011;60354;47.798;12.472;2023-03-25T12:10:11;0.82;;;0.10;;
72379;SDS011;60354;47.798;12.472;2023-03-25T12:13:06;0.30;;;0.13;;
72379;SDS011;60354;47.798;12.472;2023-03-25T12:15:40;0.73;;;0.30;;
72379;SDS011;60354;47.798;12.472;2023-03-25T12:21:25;0.20;;;0.20;;
72379;SDS011;60354;47.798;12.472;2023-03-25T12:30:24;0.55;;;0.30;;
72379;SDS011;60354;47.798;12.472;2023-03-25T12:57:03;0.70;;;0.30;;
72379;SDS011;60354;47.798;12.472;2023-03-25T13:10:43;0.10;;;0.10;;
72379;SDS011;60354;47.798;12.472;2023-03-25T13:13:20;1.70;;;0.30;;
72379;SDS011;60354;47.798;12.472;2023-03-25T13:18:29;0.52;;;0.30;;
72379;SDS011;60354;47.798;12.472;2023-03-25T13:21:10;0.40;;;0.20;;
72379;SDS011;60354;47.798;12.472;2023-03-25T13:23:47;0.25;;;0.15;;
72379;SDS011;60354;47.798;12.472;2023-03-25T13:26:20;0.35;;;0.20;;
72379;SDS011;60354;47.798;12.472;2023-03-25T13:31:31;0.10;;;0.10;;
72379;SDS011;60354;47.798;12.472;2023-03-25T13:39:18;0.70;;;0.20;;
72379;SDS011;60354;47.798;12.472;2023-03-25T13:41:49;0.10;;;0.10;;
72379;SDS011;60354;47.798;12.472;2023-03-25T13:44:34;0.10;;;0.10;;
72379;SDS011;60354;47.798;12.472;2023-03-25T13:47:12;0.20;;;0.10;;
72379;SDS011;60354;47.798;12.472;2023-03-25T13:52:38;0.57;;;0.20;;
72379;SDS011;60354;47.798;12.472;2023-03-25T13:55:12;0.20;;;0.15;;
72379;SDS011;60354;47.798;12.472;2023-03-25T14:11:32;0.20;;;0.20;;
72379;SDS011;60354;47.798;12.472;2023-03-25T14:13:57;0.60;;;0.30;;
72379;SDS011;60354;47.798;12.472;2023-03-25T14:16:37;0.85;;;0.20;;
72379;SDS011;60354;47.798;12.472;2023-03-25T14:19:20;0.20;;;0.20;;
72379;SDS011;60354;47.798;12.472;2023-03-25T14:21:51;0.25;;;0.17;;
72379;SDS011;60354;47.798;12.472;2023-03-25T14:24:21;0.40;;;0.28;;
72379;SDS011;60354;47.798;12.472;2023-03-25T14:26:58;0.30;;;0.30;;
72379;SDS011;60354;47.798;12.472;2023-03-25T14:29:34;0.43;;;0.30;;
72379;SDS011;60354;47.798;12.472;2023-03-25T14:34:40;0.20;;;0.20;;
72379;SDS011;60354;47.798;12.472;2023-03-25T14:44:32;0.40;;;0.20;;
72379;SDS011;60354;47.798;12.472;2023-03-25T14:55:33;0.13;;;0.10;;
72379;SDS011;60354;47.798;12.472;2023-03-25T14:58:06;0.20;;;0.20;;
72379;SDS011;60354;47.798;12.472;2023-03-25T15:00:43;0.20;;;0.20;;
72379;SDS011;60354;47.798;12.472;2023-03-25T15:03:16;0.20;;;0.10;;
72379;SDS011;60354;47.798;12.472;2023-03-25T15:05:43;1.55;;;0.20;;
72379;SDS011;60354;47.798;12.472;2023-03-25T15:08:23;0.28;;;0.28;;
72379;SDS011;60354;47.798;12.472;2023-03-25T15:13:28;1.38;;;0.30;;
72379;SDS011;60354;47.798;12.472;2023-03-25T15:16:02;1.65;;;0.47;;
72379;SDS011;60354;47.798;12.472;2023-03-25T15:21:13;0.38;;;0.30;;
72379;SDS011;60354;47.798;12.472;2023-03-25T15:23:44;0.57;;;0.30;;
72379;SDS011;60354;47.798;12.472;2023-03-25T15:42:44;1.25;;;0.47;;
72379;SDS011;60354;47.798;12.472;2023-03-25T15:56:12;0.28;;;0.28;;
72379;SDS011;60354;47.798;12.472;2023-03-25T16:01:29;0.30;;;0.20;;
72379;SDS011;60354;47.798;12.472;2023-03-25T16:04:01;0.47;;;0.30;;
72379;SDS011;60354;47.798;12.472;2023-03-25T16:06:28;0.30;;;0.30;;
72379;SDS011;60354;47.798;12.472;2023-03-25T16:08:57;1.65;;;0.43;;
72379;SDS011;60354;47.798;12.472;2023-03-25T16:11:25;1.38;;;0.30;;
72379;SDS011;60354;47.798;12.472;2023-03-25T16:16:27;0.77;;;0.32;;
72379;SDS011;60354;47.798;12.472;2023-03-25T16:18:58;0.50;;;0.38;;
72379;SDS011;60354;47.798;12.472;2023-03-25T16:21:26;0.25;;;0.20;;
72379;SDS011;60354;47.798;12.472;2023-03-25T16:23:53;1.50;;;0.50;;
72379;SDS011;60354;47.798;12.472;2023-03-25T16:26:35;1.02;;;0.30;;
72379;SDS011;60354;47.798;12.472;2023-03-25T16:31:48;0.47;;;0.40;;
72379;SDS011;60354;47.798;12.472;2023-03-25T16:34:16;0.50;;;0.40;;
72379;SDS011;60354;47.798;12.472;2023-03-25T16:36:42;0.50;;;0.30;;
72379;SDS011;60354;47.798;12.472;2023-03-25T16:39:14;0.40;;;0.20;;
72379;SDS011;60354;47.798;12.472;2023-03-25T16:41:44;1.15;;;0.60;;
72379;SDS011;60354;47.798;12.472;2023-03-25T16:44:12;0.82;;;0.32;;
72379;SDS011;60354;47.798;12.472;2023-03-25T16:46:39;2.33;;;0.60;;
72379;SDS011;60354;47.798;12.472;2023-03-25T16:49:05;1.15;;;0.47;;
72379;SDS011;60354;47.798;12.472;2023-03-25T16:51:34;0.38;;;0.20;;
72379;SDS011;60354;47.798;12.472;2023-03-25T16:54:09;1.58;;;0.55;;
72379;SDS011;60354;47.798;12.472;2023-03-25T16:56:44;0.50;;;0.30;;
72379;SDS011;60354;47.798;12.472;2023-03-25T17:01:42;0.98;;;0.45;;
72379;SDS011;60354;47.798;12.472;2023-03-25T17:06:44;0.70;;;0.40;;
72379;SDS011;60354;47.798;12.472;2023-03-25T17:09:17;1.15;;;0.60;;
72379;SDS011;60354;47.798;12.472;2023-03-25T17:11:46;0.82;;;0.43;;
72379;SDS011;60354;47.798;12.472;2023-03-25T17:14:17;0.50;;;0.43;;
72379;SDS011;60354;47.798;12.472;2023-03-25T17:16:45;0.43;;;0.43;;
72379;SDS011;60354;47.798;12.472;2023-03-25T17:19:13;1.17;;;0.43;;
72379;SDS011;60354;47.798;12.472;2023-03-25T17:22:00;0.52;;;0.40;;
72379;SDS011;60354;47.798;12.472;2023-03-25T17:24:26;1.20;;;0.40;;
72379;SDS011;60354;47.798;12.472;2023-03-25T17:26:53;2.10;;;0.70;;
72379;SDS011;60354;47.798;12.472;2023-03-25T17:29:21;0.55;;;0.40;;
72379;SDS011;60354;47.798;12.472;2023-03-25T17:31:53;2.70;;;0.88;;
72379;SDS011;60354;47.798;12.472;2023-03-25T17:36:47;1.63;;;0.60;;
72379;SDS011;60354;47.798;12.472;2023-03-25T17:39:25;0.65;;;0.40;;
72379;SDS011;60354;47.798;12.472;2023-03-25T17:41:57;0.35;;;0.30;;
72379;SDS011;60354;47.798;12.472;2023-03-25T17:44:28;0.82;;;0.52;;
72379;SDS011;60354;47.798;12.472;2023-03-25T17:46:57;0.98;;;0.57;;
72379;SDS011;60354;47.798;12.472;2023-03-25T17:49:23;0.75;;;0.50;;
72379;SDS011;60354;47.798;12.472;2023-03-25T17:51:48;1.92;;;0.60;;
72379;SDS011;60354;47.798;12.472;2023-03-25T17:54:14;1.02;;;0.60;;
72379;SDS011;60354;47.798;12.472;2023-03-25T17:56:40;1.05;;;0.60;;
72379;SDS011;60354;47.798;12.472;2023-03-25T17:59:06;1.00;;;0.60;;
72379;SDS011;60354;47.798;12.472;2023-03-25T18:01:43;1.15;;;0.70;;
72379;SDS011;60354;47.798;12.472;2023-03-25T18:04:11;1.98;;;0.70;;
72379;SDS011;60354;47.798;12.472;2023-03-25T18:06:37;1.08;;;0.63;;
72379;SDS011;60354;47.798;12.472;2023-03-25T18:09:05;0.68;;;0.50;;
72379;SDS011;60354;47.798;12.472;2023-03-25T18:11:38;0.63;;;0.60;;
72379;SDS011;60354;47.798;12.472;2023-03-25T18:14:03;0.68;;;0.47;;
72379;SDS011;60354;47.798;12.472;2023-03-25T18:16:29;0.90;;;0.40;;
72379;SDS011;60354;47.798;12.472;2023-03-25T18:18:54;0.50;;;0.40;;
72379;SDS011;60354;47.798;12.472;2023-03-25T18:21:20;0.57;;;0.45;;
72379;SDS011;60354;47.798;12.472;2023-03-25T18:23:47;2.13;;;0.50;;
72379;SDS011;60354;47.798;12.472;2023-03-25T18:26:14;1.50;;;0.50;;
72379;SDS011;60354;47.798;12.472;2023-03-25T18:28:41;1.10;;;0.50;;
72379;SDS011;60354;47.798;12.472;2023-03-25T18:31:11;1.88;;;0.57;;
72379;SDS011;60354;47.798;12.472;2023-03-25T18:33:43;0.80;;;0.55;;
72379;SDS011;60354;47.798;12.472;2023-03-25T18:36:10;1.75;;;0.70;;